createdAt,value
2023-06-28T00:01:18.548Z,20.93
2023-06-28T00:03:45.687Z,20.93
2023-06-28T00:06:12.736Z,20.95
2023-06-28T00:08:41.715Z,20.94
2023-06-28T00:11:11.826Z,20.89
2023-06-28T00:13:38.875Z,20.81
2023-06-28T00:16:06.001Z,20.61
2023-06-28T00:18:34.217Z,20.41
2023-06-28T00:21:03.586Z,20.31
2023-06-28T00:23:30.958Z,20.28
2023-06-28T00:25:57.968Z,20.22
2023-06-28T00:28:25.069Z,20.18
2023-06-28T00:30:52.072Z,20.15
2023-06-28T00:33:21.583Z,20.14
2023-06-28T00:35:50.115Z,20.13
2023-06-28T00:38:17.337Z,20.12
2023-06-28T00:40:44.630Z,20.10
2023-06-28T00:43:11.872Z,20.08
2023-06-28T00:45:38.898Z,20.07
2023-06-28T00:48:07.272Z,20.07
2023-06-28T00:50:36.708Z,20.07
2023-06-28T00:53:04.337Z,20.07
2023-06-28T00:55:31.611Z,20.07
2023-06-28T00:57:58.681Z,20.06
2023-06-28T01:00:27.625Z,20.07
2023-06-28T01:02:54.888Z,20.10
2023-06-28T01:05:23.191Z,20.10
2023-06-28T01:07:52.929Z,20.12
2023-06-28T01:10:20.838Z,20.14
2023-06-28T01:12:48.816Z,20.13
2023-06-28T01:15:16.514Z,20.11
2023-06-28T01:17:43.651Z,20.08
2023-06-28T01:20:11.195Z,20.05
2023-06-28T01:22:41.753Z,20.03
2023-06-28T01:25:11.955Z,19.99
2023-06-28T01:27:45.966Z,19.95
2023-06-28T01:30:16.169Z,19.92
2023-06-28T01:32:44.634Z,19.89
2023-06-28T01:35:11.997Z,19.83
2023-06-28T01:37:40.303Z,19.81
2023-06-28T01:40:12.194Z,19.78
2023-06-28T01:42:40.507Z,19.69
2023-06-28T01:45:08.400Z,19.67
2023-06-28T01:47:35.945Z,19.64
2023-06-28T01:50:03.543Z,19.63
2023-06-28T01:52:30.872Z,19.61
2023-06-28T01:55:00.857Z,19.60
2023-06-28T01:57:27.909Z,19.60
2023-06-28T01:59:56.038Z,19.61
2023-06-28T02:02:23.396Z,19.59
2023-06-28T02:04:50.622Z,19.56
2023-06-28T02:07:18.079Z,19.50
2023-06-28T02:09:46.095Z,19.36
2023-06-28T02:12:13.215Z,19.31
2023-06-28T02:14:40.792Z,19.27
2023-06-28T02:17:15.220Z,19.27
2023-06-28T02:19:43.167Z,19.24
2023-06-28T02:22:10.348Z,19.24
2023-06-28T02:24:37.405Z,19.22
2023-06-28T02:27:05.822Z,19.20
2023-06-28T02:29:32.917Z,19.17
2023-06-28T02:32:01.157Z,19.16
2023-06-28T02:34:28.617Z,19.17
2023-06-28T02:36:56.131Z,19.16
2023-06-28T02:39:23.852Z,19.14
2023-06-28T02:41:51.271Z,19.10
2023-06-28T02:44:18.408Z,19.09
2023-06-28T02:46:46.424Z,19.09
2023-06-28T02:49:13.687Z,19.10
2023-06-28T02:51:40.790Z,19.09
2023-06-28T02:54:10.559Z,19.10
2023-06-28T02:56:38.331Z,19.11
2023-06-28T02:59:33.672Z,19.13
2023-06-28T03:02:00.949Z,19.15
2023-06-28T03:04:28.817Z,19.16
2023-06-28T03:06:57.599Z,19.17
2023-06-28T03:09:25.123Z,19.19
2023-06-28T03:11:52.167Z,19.20
2023-06-28T03:14:19.380Z,19.19
2023-06-28T03:16:46.476Z,19.19
2023-06-28T03:19:13.610Z,19.20
2023-06-28T03:21:42.798Z,19.21
2023-06-28T03:24:09.824Z,19.20
2023-06-28T03:26:36.895Z,19.21
2023-06-28T03:29:03.933Z,19.21
2023-06-28T03:31:32.816Z,19.20
2023-06-28T03:34:01.200Z,19.20
2023-06-28T03:36:32.729Z,19.19
2023-06-28T03:38:59.798Z,19.17
2023-06-28T03:41:28.656Z,19.17
2023-06-28T03:43:56.107Z,19.18
2023-06-28T03:46:24.140Z,19.18
2023-06-28T03:48:51.200Z,19.17
2023-06-28T03:51:18.523Z,19.17
2023-06-28T03:53:45.526Z,19.18
2023-06-28T03:56:12.615Z,19.18
2023-06-28T03:58:39.661Z,19.18
2023-06-28T04:01:06.655Z,19.17
2023-06-28T04:03:33.816Z,19.16
2023-06-28T04:06:00.989Z,19.17
2023-06-28T04:08:28.080Z,19.18
2023-06-28T04:10:56.062Z,19.19
2023-06-28T04:13:23.831Z,19.21
2023-06-28T04:15:50.850Z,19.20
2023-06-28T04:18:17.849Z,19.19
2023-06-28T04:20:45.037Z,19.18
2023-06-28T04:23:12.183Z,19.18
2023-06-28T04:25:39.241Z,19.17
2023-06-28T04:28:06.291Z,19.13
2023-06-28T04:30:33.316Z,19.09
2023-06-28T04:33:05.541Z,19.05
2023-06-28T04:35:35.879Z,18.99
2023-06-28T04:38:04.337Z,18.91
2023-06-28T04:40:34.035Z,18.91
2023-06-28T04:43:01.105Z,18.85
2023-06-28T04:45:37.360Z,18.83
2023-06-28T04:48:09.589Z,18.76
2023-06-28T04:50:38.648Z,18.77
2023-06-28T04:53:06.447Z,18.75
2023-06-28T04:55:36.020Z,18.75
2023-06-28T04:58:05.374Z,18.75
2023-06-28T05:00:34.640Z,18.74
2023-06-28T05:03:02.172Z,18.74
2023-06-28T05:05:30.166Z,18.75
2023-06-28T05:07:57.758Z,18.77
2023-06-28T05:10:25.686Z,18.80
2023-06-28T05:12:53.371Z,18.82
2023-06-28T05:15:20.858Z,18.84
2023-06-28T05:17:48.384Z,18.85
2023-06-28T05:20:16.111Z,18.89
2023-06-28T05:22:50.047Z,18.91
2023-06-28T05:25:18.055Z,18.93
2023-06-28T05:27:45.103Z,18.94
2023-06-28T05:30:12.351Z,18.98
2023-06-28T05:32:39.588Z,18.99
2023-06-28T05:35:07.062Z,18.99
2023-06-28T05:37:34.081Z,19.02
2023-06-28T05:40:01.095Z,19.05
2023-06-28T05:42:28.158Z,19.07
2023-06-28T05:44:55.273Z,19.10
2023-06-28T05:47:22.298Z,19.12
2023-06-28T05:49:50.466Z,19.14
2023-06-28T05:52:18.545Z,19.15
2023-06-28T05:54:45.553Z,19.18
2023-06-28T05:57:13.627Z,19.22
2023-06-28T05:59:40.632Z,19.25
2023-06-28T06:02:07.732Z,19.28
2023-06-28T06:04:34.781Z,19.32
2023-06-28T06:07:01.833Z,19.37
2023-06-28T06:09:30.542Z,19.40
2023-06-28T06:11:57.921Z,19.43
2023-06-28T06:14:24.943Z,19.48
2023-06-28T06:16:51.927Z,19.49
2023-06-28T06:19:18.930Z,19.52
2023-06-28T06:21:45.929Z,19.52
2023-06-28T06:24:12.936Z,19.52
2023-06-28T06:26:39.994Z,19.53
2023-06-28T06:29:07.038Z,19.53
2023-06-28T06:31:34.365Z,19.57
2023-06-28T06:34:02.345Z,19.59
2023-06-28T06:36:29.656Z,19.62
2023-06-28T06:39:00.765Z,19.64
2023-06-28T06:41:28.144Z,19.67
2023-06-28T06:43:55.792Z,19.70
2023-06-28T06:46:22.859Z,19.74
2023-06-28T06:48:49.994Z,19.78
2023-06-28T06:51:17.289Z,19.81
2023-06-28T06:53:44.388Z,19.85
2023-06-28T06:56:11.697Z,19.90
2023-06-28T06:58:38.778Z,19.96
2023-06-28T07:01:05.906Z,20.00
2023-06-28T07:03:33.012Z,20.05
2023-06-28T07:06:00.424Z,20.09
2023-06-28T07:08:28.179Z,20.14
2023-06-28T07:10:55.180Z,20.20
2023-06-28T07:13:22.229Z,20.25
2023-06-28T07:15:49.307Z,20.30
2023-06-28T07:18:17.346Z,20.36
2023-06-28T07:20:44.601Z,20.40
2023-06-28T07:23:11.616Z,20.42
2023-06-28T07:25:40.247Z,20.46
2023-06-28T07:28:07.706Z,20.49
2023-06-28T07:30:56.476Z,20.52
2023-06-28T07:33:24.492Z,20.56
2023-06-28T07:35:52.782Z,20.58
2023-06-28T07:38:21.505Z,20.55
2023-06-28T07:40:49.979Z,20.58
2023-06-28T07:43:19.473Z,20.64
2023-06-28T07:45:46.982Z,20.72
2023-06-28T07:48:14.136Z,20.78
2023-06-28T07:50:41.914Z,20.84
2023-06-28T07:53:08.915Z,20.91
2023-06-28T07:55:36.019Z,20.99
2023-06-28T07:58:03.083Z,21.04
2023-06-28T08:00:32.034Z,21.11
2023-06-28T08:03:00.066Z,21.19
2023-06-28T08:05:27.278Z,21.27
2023-06-28T08:07:57.579Z,21.37
2023-06-28T08:10:27.831Z,21.43
2023-06-28T08:12:56.427Z,21.39
2023-06-28T08:15:23.528Z,21.48
2023-06-28T08:17:50.950Z,21.48
2023-06-28T08:20:18.356Z,21.46
2023-06-28T08:22:45.392Z,21.46
2023-06-28T08:25:12.428Z,21.53
2023-06-28T08:27:39.477Z,21.64
2023-06-28T08:30:07.525Z,21.69
2023-06-28T08:32:36.211Z,21.76
2023-06-28T08:35:05.337Z,21.85
2023-06-28T08:37:35.462Z,21.89
2023-06-28T08:40:03.075Z,21.93
2023-06-28T08:42:31.340Z,21.93
2023-06-28T08:44:59.131Z,21.94
2023-06-28T08:47:33.255Z,22.00
2023-06-28T08:50:00.586Z,22.03
2023-06-28T08:52:28.824Z,22.10
2023-06-28T08:54:58.848Z,22.18
2023-06-28T08:57:26.952Z,22.29
2023-06-28T08:59:54.165Z,22.42
2023-06-28T09:02:23.432Z,22.53
2023-06-28T09:04:52.333Z,22.69
2023-06-28T09:07:22.243Z,22.74
2023-06-28T09:09:50.416Z,22.77
2023-06-28T09:12:17.854Z,22.83
2023-06-28T09:14:44.958Z,22.86
2023-06-28T09:17:11.935Z,22.86
2023-06-28T09:19:39.284Z,22.84
2023-06-28T09:22:09.864Z,22.83
2023-06-28T09:24:38.116Z,22.90
2023-06-28T09:27:07.111Z,22.93
2023-06-28T09:29:35.369Z,22.97
2023-06-28T09:32:02.818Z,22.98
2023-06-28T09:34:29.894Z,23.01
2023-06-28T09:36:59.421Z,23.10
2023-06-28T09:39:27.150Z,23.25
2023-06-28T09:41:55.207Z,23.34
2023-06-28T09:44:30.645Z,23.36
2023-06-28T09:47:06.048Z,23.42
2023-06-28T09:49:33.559Z,23.45
2023-06-28T09:52:08.050Z,23.54
2023-06-28T09:54:45.770Z,23.62
2023-06-28T09:57:13.707Z,23.73
2023-06-28T09:59:42.582Z,23.82
2023-06-28T10:02:10.799Z,23.75
2023-06-28T10:04:41.476Z,23.79
2023-06-28T10:07:12.058Z,23.89
2023-06-28T10:09:42.482Z,23.98
2023-06-28T10:12:19.431Z,24.12
2023-06-28T10:14:59.510Z,24.28
2023-06-28T10:17:36.684Z,24.43
2023-06-28T10:20:07.602Z,24.60
2023-06-28T10:22:35.538Z,24.74
2023-06-28T10:25:06.612Z,24.91
2023-06-28T10:27:35.188Z,25.05
2023-06-28T10:30:03.850Z,25.20
2023-06-28T10:32:31.431Z,25.36
2023-06-28T10:34:59.839Z,25.49
2023-06-28T10:37:26.941Z,25.56
2023-06-28T10:39:54.814Z,25.65
2023-06-28T10:42:22.197Z,25.74
2023-06-28T10:44:57.610Z,25.81
2023-06-28T10:47:25.334Z,25.97
2023-06-28T10:50:12.667Z,26.11
2023-06-28T10:52:48.188Z,26.26
2023-06-28T10:55:35.449Z,26.37
2023-06-28T10:58:11.636Z,26.48
2023-06-28T11:00:40.203Z,26.57
2023-06-28T11:03:08.624Z,26.66
2023-06-28T11:05:40.546Z,26.74
2023-06-28T11:08:16.285Z,26.80
2023-06-28T11:10:55.521Z,26.85
2023-06-28T11:13:40.913Z,26.97
2023-06-28T11:16:10.236Z,27.05
2023-06-28T11:18:38.528Z,26.99
2023-06-28T11:21:13.358Z,26.95
2023-06-28T11:23:42.529Z,26.86
2023-06-28T11:26:20.585Z,26.83
2023-06-28T11:28:56.856Z,26.88
2023-06-28T11:31:27.356Z,26.93
2023-06-28T11:33:55.732Z,26.98
2023-06-28T11:36:26.371Z,27.00
2023-06-28T11:38:53.561Z,26.97
2023-06-28T11:41:20.956Z,26.96
2023-06-28T11:43:49.377Z,26.91
2023-06-28T11:46:22.634Z,26.96
2023-06-28T11:48:51.912Z,27.09
2023-06-28T11:51:22.821Z,27.23
2023-06-28T11:53:52.968Z,27.27
2023-06-28T11:56:20.099Z,27.23
2023-06-28T11:58:47.275Z,27.25
2023-06-28T12:01:22.874Z,27.27
2023-06-28T12:03:50.090Z,27.27
2023-06-28T12:06:17.806Z,27.26
2023-06-28T12:08:44.948Z,27.24
2023-06-28T12:11:14.565Z,27.24
2023-06-28T12:13:42.616Z,27.27
2023-06-28T12:16:15.835Z,27.32
2023-06-28T12:18:59.664Z,27.34
2023-06-28T12:21:30.949Z,27.32
2023-06-28T12:24:18.964Z,27.33
2023-06-28T12:26:48.738Z,27.34
2023-06-28T12:29:21.679Z,27.40
2023-06-28T12:31:53.623Z,27.47
2023-06-28T12:34:29.413Z,27.54
2023-06-28T12:37:01.095Z,27.64
2023-06-28T12:39:37.487Z,27.73
2023-06-28T12:42:21.515Z,27.87
2023-06-28T12:44:57.259Z,27.98
2023-06-28T12:47:27.354Z,28.07
2023-06-28T12:49:55.625Z,28.14
2023-06-28T12:52:25.265Z,28.16
2023-06-28T12:54:53.162Z,28.14
2023-06-28T12:57:27.377Z,28.13
2023-06-28T12:59:54.675Z,28.11
2023-06-28T13:02:22.020Z,27.90
2023-06-28T13:04:49.888Z,27.80
2023-06-28T13:07:17.317Z,27.84
2023-06-28T13:09:44.450Z,27.76
2023-06-28T13:12:12.606Z,27.88
2023-06-28T13:14:39.644Z,27.91
2023-06-28T13:17:07.185Z,28.02
2023-06-28T13:19:34.446Z,28.06
2023-06-28T13:22:01.527Z,28.08
2023-06-28T13:24:28.527Z,28.15
2023-06-28T13:26:57.518Z,28.22
2023-06-28T13:29:25.240Z,28.36
2023-06-28T13:31:52.515Z,28.49
2023-06-28T13:34:19.574Z,28.57
2023-06-28T13:36:46.976Z,28.60
2023-06-28T13:39:14.124Z,28.64
2023-06-28T13:41:43.969Z,28.63
2023-06-28T13:44:11.430Z,28.58
2023-06-28T13:46:38.495Z,28.56
2023-06-28T13:49:05.545Z,28.47
2023-06-28T13:51:33.714Z,28.32
2023-06-28T13:54:01.406Z,28.37
2023-06-28T13:56:28.420Z,28.35
2023-06-28T13:58:55.845Z,28.35
2023-06-28T14:01:24.231Z,28.31
2023-06-28T14:03:52.028Z,28.28
2023-06-28T14:06:19.158Z,28.31
2023-06-28T14:08:46.248Z,28.39
2023-06-28T14:11:13.963Z,28.47
2023-06-28T14:13:41.016Z,28.23
2023-06-28T14:16:08.050Z,28.22
2023-06-28T14:18:35.069Z,28.27
2023-06-28T14:21:02.062Z,28.24
2023-06-28T14:23:29.062Z,28.22
2023-06-28T14:25:56.087Z,28.25
2023-06-28T14:28:24.328Z,28.21
2023-06-28T14:30:51.416Z,28.20
2023-06-28T14:33:18.471Z,28.26
2023-06-28T14:35:45.606Z,28.32
2023-06-28T14:38:12.944Z,28.34
2023-06-28T14:40:40.183Z,28.43
2023-06-28T14:43:09.049Z,28.54
2023-06-28T14:45:36.278Z,28.60
2023-06-28T14:48:03.632Z,28.61
2023-06-28T14:50:30.667Z,28.58
2023-06-28T14:52:57.801Z,28.56
2023-06-28T14:55:24.850Z,28.52
2023-06-28T14:57:51.887Z,28.47
2023-06-28T15:00:19.334Z,28.35
2023-06-28T15:02:46.481Z,28.26
2023-06-28T15:05:13.681Z,28.16
2023-06-28T15:07:41.342Z,28.08
2023-06-28T15:10:09.340Z,28.03
2023-06-28T15:12:36.342Z,28.04
2023-06-28T15:15:03.417Z,28.02
2023-06-28T15:17:30.980Z,27.94
2023-06-28T15:19:58.010Z,27.86
2023-06-28T15:22:25.016Z,27.78
2023-06-28T15:24:52.080Z,27.68
2023-06-28T15:27:20.475Z,27.71
2023-06-28T15:29:47.471Z,27.62
2023-06-28T15:32:14.463Z,27.59
2023-06-28T15:34:41.516Z,27.52
2023-06-28T15:37:08.511Z,27.46
2023-06-28T15:39:35.489Z,27.37
2023-06-28T15:42:02.782Z,27.37
2023-06-28T15:44:29.785Z,27.32
2023-06-28T15:46:56.760Z,27.24
2023-06-28T15:49:24.675Z,27.19
2023-06-28T15:51:51.806Z,27.09
2023-06-28T15:54:18.859Z,27.11
2023-06-28T15:56:47.846Z,27.09
2023-06-28T15:59:14.852Z,27.04
2023-06-28T16:01:44.987Z,27.03
2023-06-28T16:04:12.605Z,27.06
2023-06-28T16:06:39.649Z,27.06
2023-06-28T16:09:06.798Z,27.15
2023-06-28T16:11:34.830Z,27.27
2023-06-28T16:14:01.931Z,27.55
2023-06-28T16:16:30.030Z,27.73
2023-06-28T16:18:57.265Z,27.95
2023-06-28T16:21:24.418Z,28.23
2023-06-28T16:23:51.484Z,28.44
2023-06-28T16:26:18.558Z,28.59
2023-06-28T16:28:45.537Z,28.69
2023-06-28T16:31:12.564Z,28.60
2023-06-28T16:33:39.678Z,28.67
2023-06-28T16:36:06.664Z,28.67
2023-06-28T16:38:33.657Z,28.60
2023-06-28T16:41:00.772Z,28.45
2023-06-28T16:43:27.814Z,28.31
2023-06-28T16:45:54.944Z,28.22
2023-06-28T16:48:22.109Z,28.05
2023-06-28T16:50:49.348Z,27.94
2023-06-28T16:53:16.694Z,27.87
2023-06-28T16:55:43.719Z,27.89
2023-06-28T16:58:10.904Z,27.86
2023-06-28T17:00:37.993Z,27.80
2023-06-28T17:03:05.171Z,27.74
2023-06-28T17:05:32.308Z,27.69
2023-06-28T17:07:59.408Z,27.60
2023-06-28T17:10:26.486Z,27.60
2023-06-28T17:12:53.577Z,27.65
2023-06-28T17:15:20.555Z,27.66
2023-06-28T17:17:48.313Z,27.73
2023-06-28T17:20:17.013Z,27.62
2023-06-28T17:22:44.027Z,27.66
2023-06-28T17:25:11.062Z,27.70
2023-06-28T17:27:40.359Z,27.63
2023-06-28T17:30:08.355Z,27.56
2023-06-28T17:32:35.523Z,27.51
2023-06-28T17:35:02.591Z,27.56
2023-06-28T17:37:29.800Z,27.57
2023-06-28T17:39:56.837Z,27.52
2023-06-28T17:42:23.889Z,27.62
2023-06-28T17:44:50.902Z,27.64
2023-06-28T17:47:17.963Z,27.56
2023-06-28T17:49:44.969Z,27.55
2023-06-28T17:52:11.969Z,27.52
2023-06-28T17:54:39.096Z,27.45
2023-06-28T17:57:06.479Z,27.36
2023-06-28T17:59:33.473Z,27.28
2023-06-28T18:02:00.629Z,27.18
2023-06-28T18:04:27.768Z,27.11
2023-06-28T18:06:55.600Z,27.04
2023-06-28T18:09:22.732Z,27.03
2023-06-28T18:11:49.877Z,27.08
2023-06-28T18:14:16.882Z,27.10
2023-06-28T18:16:44.288Z,27.08
2023-06-28T18:19:12.629Z,27.03
2023-06-28T18:21:39.634Z,27.00
2023-06-28T18:24:07.274Z,26.88
2023-06-28T18:26:34.282Z,26.83
2023-06-28T18:29:01.257Z,26.81
2023-06-28T18:31:28.343Z,26.73
2023-06-28T18:33:55.380Z,26.70
2023-06-28T18:36:22.389Z,26.64
2023-06-28T18:38:49.383Z,26.60
2023-06-28T18:41:16.516Z,26.45
2023-06-28T18:43:43.504Z,26.31
2023-06-28T18:46:10.560Z,26.20
2023-06-28T18:48:37.569Z,26.15
2023-06-28T18:51:04.646Z,26.05
2023-06-28T18:53:31.849Z,25.96
2023-06-28T18:55:58.983Z,25.91
2023-06-28T18:58:31.732Z,25.86
2023-06-28T19:00:59.404Z,25.80
2023-06-28T19:03:27.815Z,25.68
2023-06-28T19:05:55.371Z,25.58
2023-06-28T19:08:23.183Z,25.47
2023-06-28T19:10:50.772Z,25.36
2023-06-28T19:13:21.256Z,25.25
2023-06-28T19:15:49.537Z,25.09
2023-06-28T19:18:16.800Z,24.95
2023-06-28T19:20:46.066Z,24.86
2023-06-28T19:23:14.294Z,24.72
2023-06-28T19:25:41.776Z,24.61
2023-06-28T19:28:09.414Z,24.53
2023-06-28T19:30:36.486Z,24.42
2023-06-28T19:33:03.630Z,24.34
2023-06-28T19:35:30.705Z,24.26
2023-06-28T19:37:57.772Z,24.22
2023-06-28T19:40:25.064Z,24.14
2023-06-28T19:42:52.064Z,24.07
2023-06-28T19:45:19.170Z,23.99
2023-06-28T19:47:47.552Z,23.92
2023-06-28T19:50:14.693Z,23.82
2023-06-28T19:52:41.698Z,23.71
2023-06-28T19:55:09.895Z,23.64
2023-06-28T19:57:36.960Z,23.60
2023-06-28T20:00:06.439Z,23.51
2023-06-28T20:02:42.792Z,23.42
2023-06-28T20:05:10.204Z,23.33
2023-06-28T20:07:38.017Z,23.27
2023-06-28T20:10:05.835Z,23.20
2023-06-28T20:12:34.232Z,23.08
2023-06-28T20:15:04.940Z,23.04
2023-06-28T20:17:34.773Z,22.95
2023-06-28T20:20:01.928Z,22.90
2023-06-28T20:22:33.960Z,22.80
2023-06-28T20:25:06.964Z,22.76
2023-06-28T20:27:35.238Z,22.74
2023-06-28T20:30:03.441Z,22.75
2023-06-28T20:32:32.058Z,22.71
2023-06-28T20:35:00.263Z,22.68
2023-06-28T20:37:27.418Z,22.65
2023-06-28T20:39:54.620Z,22.65
2023-06-28T20:42:25.672Z,22.61
2023-06-28T20:44:54.587Z,22.60
2023-06-28T20:47:26.519Z,22.56
2023-06-28T20:49:53.832Z,22.54
2023-06-28T20:52:21.309Z,22.52
2023-06-28T20:54:48.310Z,22.51
2023-06-28T20:57:15.385Z,22.47
2023-06-28T20:59:42.412Z,22.43
2023-06-28T21:02:09.449Z,22.41
2023-06-28T21:04:36.955Z,22.37
2023-06-28T21:07:04.443Z,22.29
2023-06-28T21:09:31.506Z,22.28
2023-06-28T21:11:58.521Z,22.27
2023-06-28T21:14:25.587Z,22.21
2023-06-28T21:16:52.620Z,22.16
2023-06-28T21:19:19.640Z,22.12
2023-06-28T21:21:46.721Z,22.12
2023-06-28T21:24:15.158Z,22.09
2023-06-28T21:26:42.545Z,22.07
2023-06-28T21:29:09.568Z,21.99
2023-06-28T21:31:36.639Z,21.96
2023-06-28T21:34:03.888Z,21.94
2023-06-28T21:36:30.893Z,21.93
2023-06-28T21:38:58.537Z,21.91
2023-06-28T21:41:25.646Z,21.84
2023-06-28T21:43:52.721Z,21.84
2023-06-28T21:46:19.951Z,21.79
2023-06-28T21:48:47.235Z,21.76
2023-06-28T21:51:14.303Z,21.77
2023-06-28T21:53:41.363Z,21.75
2023-06-28T21:56:10.476Z,21.74
2023-06-28T21:58:37.812Z,21.66
2023-06-28T22:01:04.897Z,21.67
2023-06-28T22:03:32.051Z,21.65
2023-06-28T22:05:59.146Z,21.60
2023-06-28T22:08:26.140Z,21.57
2023-06-28T22:10:54.848Z,21.54
2023-06-28T22:13:24.585Z,21.52
2023-06-28T22:15:52.025Z,21.49
2023-06-28T22:18:21.017Z,21.48
2023-06-28T22:20:49.264Z,21.45
2023-06-28T22:23:17.917Z,21.43
2023-06-28T22:25:46.222Z,21.43
2023-06-28T22:28:13.224Z,21.43
2023-06-28T22:30:40.242Z,21.42
2023-06-28T22:33:07.428Z,21.38
2023-06-28T22:35:34.507Z,21.34
2023-06-28T22:38:01.533Z,21.31
2023-06-28T22:40:28.573Z,21.27
2023-06-28T22:42:55.590Z,21.22
2023-06-28T22:45:23.011Z,21.21
2023-06-28T22:47:51.833Z,21.18
2023-06-28T22:50:18.925Z,21.16
2023-06-28T22:52:45.938Z,21.15
2023-06-28T22:55:13.264Z,21.13
2023-06-28T22:57:40.616Z,21.13
2023-06-28T23:00:11.238Z,21.10
2023-06-28T23:02:38.889Z,21.10
2023-06-28T23:05:08.195Z,21.07
2023-06-28T23:07:39.276Z,21.04
2023-06-28T23:10:07.129Z,21.04
2023-06-28T23:12:38.265Z,21.03
2023-06-28T23:15:06.179Z,21.02
2023-06-28T23:17:33.552Z,21.02
2023-06-28T23:20:08.591Z,21.02
2023-06-28T23:22:35.871Z,20.99
2023-06-28T23:25:03.596Z,20.97
2023-06-28T23:27:30.828Z,20.95
2023-06-28T23:29:58.461Z,20.94
2023-06-28T23:32:30.082Z,20.90
2023-06-28T23:34:57.470Z,20.87
2023-06-28T23:37:24.631Z,20.83
2023-06-28T23:39:51.985Z,20.81
2023-06-28T23:42:19.284Z,20.80
2023-06-28T23:44:51.370Z,20.74
2023-06-28T23:47:19.543Z,20.72
2023-06-28T23:49:51.435Z,20.70
2023-06-28T23:52:20.842Z,20.65
2023-06-28T23:54:50.009Z,20.62
2023-06-28T23:57:17.049Z,20.57
2023-06-28T23:59:44.153Z,20.57
